Time,TemperatureF,DewpointF,PressureIn,WindDirection,WindDirectionDegrees,WindSpeedMPH,WindSpeedGustMPH,Humidity,HourlyPrecipIn,Conditions,Clouds,dailyrainin,SolarRadiationWatts/m^2,SoftwareType,DateUTC
2013-04-19 00:13:00,48.0,28.0,-100.00,NE,52,4.0,7.0,46,0.00,,,0.00,0.000000,,2013-04-19 10:13:00,
2013-04-19 00:23:00,48.0,28.0,-100.00,NE,52,4.0,7.0,46,0.00,,,0.00,0.000000,,2013-04-19 10:23:00,
2013-04-19 00:33:00,48.0,28.0,-100.00,NE,52,4.0,7.0,46,0.00,,,0.00,0.000000,,2013-04-19 10:33:00,
2013-04-19 00:42:00,48.0,28.0,-100.00,NE,52,4.0,7.0,46,0.00,,,0.00,0.000000,,2013-04-19 10:42:00,
2013-04-19 01:11:00,52.0,9.0,-100.00,NE,55,7.0,10.0,17,0.00,,,0.00,0.000000,,2013-04-19 11:11:00,
2013-04-19 01:22:00,52.0,9.0,-100.00,NE,55,7.0,10.0,17,0.00,,,0.00,0.000000,,2013-04-19 11:22:00,
2013-04-19 01:32:00,52.0,9.0,-100.00,NE,55,7.0,10.0,17,0.00,,,0.00,0.000000,,2013-04-19 11:32:00,
2013-04-19 01:42:00,52.0,9.0,-100.00,NE,55,7.0,10.0,17,0.00,,,0.00,0.000000,,2013-04-19 11:42:00,
2013-04-19 02:12:00,50.0,16.0,-100.00,East,98,5.0,7.0,26,0.00,,,0.00,0.000000,,2013-04-19 12:12:00,
2013-04-19 02:22:00,50.0,16.0,-100.00,East,98,5.0,7.0,26,0.00,,,0.00,0.000000,,2013-04-19 12:22:00,
2013-04-19 02:32:00,50.0,16.0,-100.00,East,98,5.0,7.0,26,0.00,,,0.00,0.000000,,2013-04-19 12:32:00,
2013-04-19 02:42:00,50.0,16.0,-100.00,East,98,5.0,7.0,26,0.00,,,0.00,0.000000,,2013-04-19 12:42:00,
2013-04-19 03:11:00,50.0,12.0,-100.00,ESE,103,6.0,8.0,21,0.00,,,0.00,0.000000,,2013-04-19 13:11:00,
2013-04-19 03:21:00,50.0,12.0,-100.00,ESE,103,6.0,8.0,21,0.00,,,0.00,0.000000,,2013-04-19 13:21:00,
2013-04-19 03:32:00,50.0,12.0,-100.00,ESE,103,6.0,8.0,21,0.00,,,0.00,0.000000,,2013-04-19 13:32:00,
2013-04-19 03:42:00,50.0,12.0,-100.00,ESE,103,6.0,8.0,21,0.00,,,0.00,0.000000,,2013-04-19 13:42:00,
2013-04-19 04:11:00,49.0,11.0,-100.00,ESE,111,2.0,9.0,21,0.00,,,0.00,0.000000,,2013-04-19 14:11:00,
2013-04-19 04:21:00,49.0,11.0,-100.00,ESE,111,2.0,9.0,21,0.00,,,0.00,0.000000,,2013-04-19 14:21:00,
2013-04-19 04:32:00,49.0,11.0,-100.00,ESE,111,2.0,9.0,21,0.00,,,0.00,0.000000,,2013-04-19 14:32:00,
2013-04-19 04:42:00,49.0,11.0,-100.00,ESE,111,2.0,9.0,21,0.00,,,0.00,0.000000,,2013-04-19 14:42:00,
2013-04-19 05:12:00,49.0,6.0,-100.00,ESE,107,0.0,8.0,17,0.00,,,0.00,0.000000,,2013-04-19 15:12:00,
2013-04-19 05:21:00,49.0,6.0,-100.00,ESE,107,0.0,8.0,17,0.00,,,0.00,0.000000,,2013-04-19 15:21:00,
2013-04-19 05:33:00,49.0,6.0,-100.00,ESE,107,0.0,8.0,17,0.00,,,0.00,0.000000,,2013-04-19 15:33:00,
2013-04-19 05:43:00,49.0,6.0,-100.00,ESE,107,0.0,8.0,17,0.00,,,0.00,0.000000,,2013-04-19 15:43:00,
2013-04-19 06:12:00,50.0,11.0,-100.00,East,99,0.0,0.0,20,0.00,,,0.00,0.000000,,2013-04-19 16:12:00,
2013-04-19 06:23:00,50.0,11.0,-100.00,East,99,0.0,0.0,20,0.00,,,0.00,0.000000,,2013-04-19 16:23:00,
2013-04-19 06:32:00,50.0,11.0,-100.00,East,99,0.0,0.0,20,0.00,,,0.00,0.000000,,2013-04-19 16:32:00,
2013-04-19 06:42:00,50.0,11.0,-100.00,East,99,0.0,0.0,20,0.00,,,0.00,0.000000,,2013-04-19 16:42:00,
2013-04-19 07:12:00,50.0,16.0,-100.00,East,87,0.0,0.0,25,0.00,,,0.00,9.000000,,2013-04-19 17:12:00,
2013-04-19 07:21:00,50.0,16.0,-100.00,East,87,0.0,0.0,25,0.00,,,0.00,9.000000,,2013-04-19 17:21:00,
2013-04-19 07:32:00,50.0,16.0,-100.00,East,87,0.0,0.0,25,0.00,,,0.00,9.000000,,2013-04-19 17:32:00,
2013-04-19 07:42:00,50.0,16.0,-100.00,East,87,0.0,0.0,25,0.00,,,0.00,9.000000,,2013-04-19 17:42:00,
2013-04-19 08:13:00,54.0,20.0,-100.00,East,89,2.0,5.0,26,0.00,,,0.00,53.000000,,2013-04-19 18:13:00,
2013-04-19 08:22:00,54.0,20.0,-100.00,East,89,2.0,5.0,26,0.00,,,0.00,53.000000,,2013-04-19 18:22:00,
2013-04-19 08:33:00,54.0,20.0,-100.00,East,89,2.0,5.0,26,0.00,,,0.00,53.000000,,2013-04-19 18:33:00,
2013-04-19 08:42:00,54.0,20.0,-100.00,East,89,2.0,5.0,26,0.00,,,0.00,53.000000,,2013-04-19 18:42:00,
2013-04-19 09:11:00,59.0,31.0,-100.00,North,353,5.0,8.0,34,0.00,,,0.00,490.000000,,2013-04-19 19:11:00,
2013-04-19 09:21:00,59.0,31.0,-100.00,North,353,5.0,8.0,34,0.00,,,0.00,490.000000,,2013-04-19 19:21:00,
2013-04-19 09:32:00,59.0,31.0,-100.00,North,353,5.0,8.0,34,0.00,,,0.00,490.000000,,2013-04-19 19:32:00,
2013-04-19 09:41:00,59.0,31.0,-100.00,North,353,5.0,8.0,34,0.00,,,0.00,490.000000,,2013-04-19 19:41:00,
2013-04-19 10:11:00,59.0,44.0,-100.00,NW,325,7.0,12.0,58,0.00,,,0.00,717.000000,,2013-04-19 20:11:00,
2013-04-19 10:22:00,59.0,44.0,-100.00,NW,325,7.0,12.0,58,0.00,,,0.00,717.000000,,2013-04-19 20:22:00,
2013-04-19 10:32:00,59.0,44.0,-100.00,NW,325,7.0,12.0,58,0.00,,,0.00,717.000000,,2013-04-19 20:32:00,
2013-04-19 10:41:00,59.0,44.0,-100.00,NW,325,7.0,12.0,58,0.00,,,0.00,717.000000,,2013-04-19 20:41:00,
2013-04-19 11:11:00,61.0,50.0,-100.00,NNW,333,6.0,12.0,68,0.00,,,0.00,884.000000,,2013-04-19 21:11:00,
2013-04-19 11:21:00,61.0,50.0,-100.00,NNW,333,6.0,12.0,68,0.00,,,0.00,884.000000,,2013-04-19 21:21:00,
2013-04-19 11:32:00,61.0,50.0,-100.00,NNW,333,6.0,12.0,68,0.00,,,0.00,884.000000,,2013-04-19 21:32:00,
2013-04-19 11:42:00,61.0,50.0,-100.00,NNW,333,6.0,12.0,68,0.00,,,0.00,884.000000,,2013-04-19 21:42:00,
2013-04-19 12:12:00,60.0,52.0,-100.00,WNW,288,4.0,12.0,74,0.00,,,0.00,832.000000,,2013-04-19 22:12:00,
2013-04-19 12:22:00,60.0,52.0,-100.00,WNW,288,4.0,12.0,74,0.00,,,0.00,832.000000,,2013-04-19 22:22:00,
2013-04-19 12:33:00,60.0,52.0,-100.00,WNW,288,4.0,12.0,74,0.00,,,0.00,832.000000,,2013-04-19 22:33:00,
2013-04-19 12:42:00,60.0,52.0,-100.00,WNW,288,4.0,12.0,74,0.00,,,0.00,832.000000,,2013-04-19 22:42:00,
2013-04-19 14:12:00,55.0,54.0,-100.00,NNW,328,3.0,10.0,97,-99.99,,,0.00,266.000000,,2013-04-20 00:12:00,
2013-04-19 14:21:00,55.0,54.0,-100.00,NNW,328,3.0,10.0,97,-99.99,,,0.00,266.000000,,2013-04-20 00:21:00,
2013-04-19 14:31:00,55.0,54.0,-100.00,NNW,328,3.0,10.0,97,-99.99,,,0.00,266.000000,,2013-04-20 00:31:00,
2013-04-19 14:41:00,55.0,54.0,-100.00,NNW,328,3.0,10.0,97,-99.99,,,0.00,266.000000,,2013-04-20 00:41:00,
2013-04-19 15:11:00,54.0,53.0,-100.00,WNW,302,3.0,7.0,98,0.01,,,0.01,123.000000,,2013-04-20 01:11:00,
2013-04-19 15:21:00,54.0,53.0,-100.00,WNW,302,3.0,7.0,98,0.01,,,0.01,123.000000,,2013-04-20 01:21:00,
2013-04-19 15:32:00,54.0,53.0,-100.00,WNW,302,3.0,7.0,98,0.01,,,0.01,123.000000,,2013-04-20 01:32:00,
2013-04-19 15:42:00,54.0,53.0,-100.00,WNW,302,3.0,7.0,98,0.01,,,0.01,123.000000,,2013-04-20 01:42:00,
2013-04-19 16:11:00,54.0,54.0,-100.00,NW,306,4.0,6.0,99,0.00,,,0.01,103.000000,,2013-04-20 02:11:00,
2013-04-19 16:21:00,54.0,54.0,-100.00,NW,306,4.0,6.0,99,0.00,,,0.01,103.000000,,2013-04-20 02:21:00,
2013-04-19 16:32:00,54.0,54.0,-100.00,NW,306,4.0,6.0,99,0.00,,,0.01,103.000000,,2013-04-20 02:32:00,
2013-04-19 16:42:00,54.0,54.0,-100.00,NW,306,4.0,6.0,99,0.00,,,0.01,103.000000,,2013-04-20 02:42:00,
2013-04-19 17:11:00,54.0,54.0,-100.00,NNW,333,3.0,6.0,99,0.01,,,0.02,87.000000,,2013-04-20 03:11:00,
2013-04-19 17:21:00,54.0,54.0,-100.00,NNW,333,3.0,6.0,99,0.01,,,0.02,87.000000,,2013-04-20 03:21:00,
2013-04-19 17:33:00,54.0,54.0,-100.00,NNW,333,3.0,6.0,99,0.01,,,0.02,87.000000,,2013-04-20 03:33:00,
2013-04-19 17:43:00,54.0,54.0,-100.00,NNW,333,3.0,6.0,99,0.01,,,0.02,87.000000,,2013-04-20 03:43:00,
2013-04-19 18:12:00,53.0,53.0,-100.00,NNW,345,3.0,8.0,99,0.01,,,0.03,52.000000,,2013-04-20 04:12:00,
2013-04-19 18:23:00,53.0,53.0,-100.00,NNW,345,3.0,8.0,99,0.01,,,0.03,52.000000,,2013-04-20 04:23:00,
2013-04-19 18:32:00,53.0,53.0,-100.00,NNW,345,3.0,8.0,99,0.01,,,0.03,52.000000,,2013-04-20 04:32:00,
2013-04-19 18:42:00,53.0,53.0,-100.00,NNW,345,3.0,8.0,99,0.01,,,0.03,52.000000,,2013-04-20 04:42:00,
2013-04-19 19:12:00,52.0,52.0,-100.00,NNE,17,3.0,6.0,99,0.00,,,0.03,22.000000,,2013-04-20 05:12:00,
2013-04-19 19:21:00,52.0,52.0,-100.00,NNE,17,3.0,6.0,99,0.00,,,0.03,22.000000,,2013-04-20 05:21:00,
2013-04-19 19:32:00,52.0,52.0,-100.00,NNE,17,3.0,6.0,99,0.00,,,0.03,22.000000,,2013-04-20 05:32:00,
2013-04-19 19:42:00,52.0,52.0,-100.00,NNE,17,3.0,6.0,99,0.00,,,0.03,22.000000,,2013-04-20 05:42:00,
2013-04-19 20:12:00,50.0,50.0,-100.00,North,11,3.0,5.0,99,0.00,,,0.03,0.000000,,2013-04-20 06:12:00,
2013-04-19 20:21:00,50.0,50.0,-100.00,North,11,3.0,5.0,99,0.00,,,0.03,0.000000,,2013-04-20 06:21:00,
2013-04-19 20:31:00,50.0,50.0,-100.00,North,11,3.0,5.0,99,0.00,,,0.03,0.000000,,2013-04-20 06:31:00,
2013-04-19 20:42:00,50.0,50.0,-100.00,North,11,3.0,5.0,99,0.00,,,0.03,0.000000,,2013-04-20 06:42:00,
2013-04-19 21:11:00,49.0,49.0,-100.00,East,89,4.0,6.0,99,0.00,,,0.03,0.000000,,2013-04-20 07:11:00,
2013-04-19 21:21:00,49.0,49.0,-100.00,East,89,4.0,6.0,99,0.00,,,0.03,0.000000,,2013-04-20 07:21:00,
2013-04-19 21:32:00,49.0,49.0,-100.00,East,89,4.0,6.0,99,0.00,,,0.03,0.000000,,2013-04-20 07:32:00,
2013-04-19 21:42:00,49.0,49.0,-100.00,East,89,4.0,6.0,99,0.00,,,0.03,0.000000,,2013-04-20 07:42:00,
2013-04-19 22:11:00,48.0,47.0,-100.00,East,90,5.0,6.0,98,0.00,,,0.03,0.000000,,2013-04-20 08:11:00,
2013-04-19 22:21:00,48.0,47.0,-100.00,East,90,5.0,6.0,98,0.00,,,0.03,0.000000,,2013-04-20 08:21:00,
2013-04-19 22:31:00,48.0,47.0,-100.00,East,90,5.0,6.0,98,0.00,,,0.03,0.000000,,2013-04-20 08:31:00,
2013-04-19 22:42:00,48.0,47.0,-100.00,East,90,5.0,6.0,98,0.00,,,0.03,0.000000,,2013-04-20 08:42:00,
2013-04-19 23:12:00,48.0,47.0,-100.00,ENE,77,4.0,6.0,98,0.00,,,0.03,0.000000,,2013-04-20 09:12:00,
2013-04-19 23:21:00,48.0,47.0,-100.00,ENE,77,4.0,6.0,98,0.00,,,0.03,0.000000,,2013-04-20 09:21:00,
2013-04-19 23:32:00,48.0,47.0,-100.00,ENE,77,4.0,6.0,98,0.00,,,0.03,0.000000,,2013-04-20 09:32:00,
2013-04-19 23:43:00,48.0,47.0,-100.00,ENE,77,4.0,6.0,98,0.00,,,0.03,0.000000,,2013-04-20 09:43:00,